createdAt,value
2019-01-24T00:00:50.036Z,36.70
2019-01-24T00:03:19.835Z,48.27
2019-01-24T00:05:49.456Z,50.87
2019-01-24T00:08:19.028Z,50.10
2019-01-24T00:10:48.664Z,51.53
2019-01-24T00:13:18.232Z,56.10
2019-01-24T00:15:47.792Z,60.87
2019-01-24T00:18:17.366Z,45.57
2019-01-24T00:20:46.922Z,41.23
2019-01-24T00:23:16.537Z,50.80
2019-01-24T00:25:46.120Z,57.90
2019-01-24T00:28:15.675Z,51.13
2019-01-24T00:30:45.246Z,45.83
2019-01-24T00:33:14.818Z,46.10
2019-01-24T00:35:44.738Z,53.00
2019-01-24T00:38:14.285Z,67.53
2019-01-24T00:40:43.835Z,45.30
2019-01-24T00:43:14.664Z,51.17
2019-01-24T00:45:44.201Z,43.90
2019-01-24T00:48:13.772Z,45.63
2019-01-24T00:50:43.317Z,50.70
2019-01-24T00:53:12.889Z,55.97
2019-01-24T00:55:42.516Z,34.37
2019-01-24T00:58:12.089Z,28.93
2019-01-24T01:00:41.831Z,50.93
2019-01-24T01:03:11.458Z,48.73
2019-01-24T01:05:41.100Z,50.57
2019-01-24T01:08:10.651Z,55.37
2019-01-24T01:10:40.562Z,57.13
2019-01-24T01:13:10.252Z,51.30
2019-01-24T01:15:39.796Z,50.17
2019-01-24T01:18:09.503Z,57.33
2019-01-24T01:20:39.053Z,42.63
2019-01-24T01:23:08.632Z,36.10
2019-01-24T01:25:38.258Z,35.30
2019-01-24T01:28:07.902Z,55.90
2019-01-24T01:30:37.591Z,51.63
2019-01-24T01:33:07.211Z,47.50
2019-01-24T01:35:36.854Z,46.33
2019-01-24T01:38:07.311Z,49.53
2019-01-24T01:40:36.884Z,52.23
2019-01-24T01:43:06.773Z,50.53
2019-01-24T01:45:36.323Z,48.63
2019-01-24T01:48:05.964Z,55.33
2019-01-24T01:50:35.590Z,54.70
2019-01-24T01:53:05.299Z,45.50
2019-01-24T01:55:34.924Z,46.70
2019-01-24T01:58:04.619Z,44.97
2019-01-24T02:00:34.197Z,49.37
2019-01-24T02:03:03.745Z,49.37
2019-01-24T02:05:33.385Z,49.13
2019-01-24T02:08:02.935Z,59.90
2019-01-24T02:10:33.188Z,44.10
2019-01-24T02:13:02.736Z,47.63
2019-01-24T02:15:32.286Z,43.20
2019-01-24T02:18:01.931Z,39.63
2019-01-24T02:20:31.555Z,40.90
2019-01-24T02:23:01.120Z,50.00
2019-01-24T02:25:30.677Z,40.27
2019-01-24T02:28:00.260Z,42.67
2019-01-24T02:30:31.331Z,58.73
2019-01-24T02:33:01.271Z,47.23
2019-01-24T02:35:30.823Z,49.37
2019-01-24T02:38:00.381Z,48.13
2019-01-24T02:40:30.018Z,47.60
2019-01-24T02:42:59.590Z,46.73
2019-01-24T02:45:29.167Z,48.93
2019-01-24T02:47:58.828Z,47.23
2019-01-24T02:50:28.396Z,53.40
2019-01-24T02:52:57.950Z,42.63
2019-01-24T02:55:27.519Z,40.47
2019-01-24T02:57:57.075Z,50.20
2019-01-24T03:00:26.603Z,51.83
2019-01-24T03:02:56.127Z,43.93
2019-01-24T03:05:25.734Z,43.10
2019-01-24T03:07:55.254Z,48.97
2019-01-24T03:10:24.801Z,49.30
2019-01-24T03:12:54.318Z,44.70
2019-01-24T03:15:24.091Z,47.00
2019-01-24T03:17:53.714Z,50.03
2019-01-24T03:20:23.637Z,47.47
2019-01-24T03:22:53.165Z,55.03
2019-01-24T03:25:22.866Z,44.17
2019-01-24T03:27:52.406Z,40.70
2019-01-24T03:30:23.128Z,49.33
2019-01-24T03:32:52.764Z,36.77
2019-01-24T03:35:25.424Z,41.17
2019-01-24T03:37:55.186Z,46.67
2019-01-24T03:40:24.780Z,53.87
2019-01-24T03:42:54.325Z,45.87
2019-01-24T03:45:23.845Z,45.93
2019-01-24T03:47:53.365Z,45.87
2019-01-24T03:50:23.740Z,50.60
2019-01-24T03:52:53.437Z,40.67
2019-01-24T03:55:23.307Z,47.00
2019-01-24T03:57:52.835Z,43.77
2019-01-24T04:00:25.568Z,46.67
2019-01-24T04:02:55.207Z,48.63
2019-01-24T04:05:24.896Z,52.70
2019-01-24T04:07:54.519Z,56.20
2019-01-24T04:10:24.409Z,47.80
2019-01-24T04:12:53.951Z,56.70
2019-01-24T04:15:25.514Z,44.40
2019-01-24T04:17:55.435Z,37.63
2019-01-24T04:20:25.177Z,51.63
2019-01-24T04:22:54.698Z,58.87
2019-01-24T04:25:24.240Z,49.47
2019-01-24T04:27:53.776Z,53.20
2019-01-24T04:30:23.737Z,49.60
2019-01-24T04:32:53.256Z,50.73
2019-01-24T04:35:22.862Z,60.50
2019-01-24T04:37:52.391Z,61.80
2019-01-24T04:40:21.932Z,43.33
2019-01-24T04:42:52.151Z,53.73
2019-01-24T04:45:21.682Z,61.43
2019-01-24T04:47:51.231Z,53.93
2019-01-24T04:50:20.749Z,57.73
2019-01-24T04:52:50.352Z,59.70
2019-01-24T04:55:20.715Z,53.70
2019-01-24T04:57:50.472Z,47.70
2019-01-24T05:00:26.448Z,50.30
2019-01-24T05:02:55.981Z,41.57
2019-01-24T05:05:28.011Z,60.13
2019-01-24T05:07:56.845Z,33.17
2019-01-24T05:10:26.458Z,49.77
2019-01-24T05:12:55.974Z,51.00
2019-01-24T05:15:25.495Z,46.60
2019-01-24T05:17:55.055Z,51.10
2019-01-24T05:20:24.574Z,51.07
2019-01-24T05:22:54.114Z,67.70
2019-01-24T05:25:23.654Z,42.13
2019-01-24T05:27:53.198Z,53.97
2019-01-24T05:30:25.326Z,53.70
2019-01-24T05:32:55.418Z,57.10
2019-01-24T05:35:25.029Z,52.83
2019-01-24T05:37:54.572Z,40.43
2019-01-24T05:40:24.118Z,42.20
2019-01-24T05:42:53.733Z,49.90
2019-01-24T05:45:23.332Z,42.80
2019-01-24T05:47:52.858Z,52.57
2019-01-24T05:50:22.378Z,50.60
2019-01-24T05:52:51.914Z,43.50
2019-01-24T05:55:21.445Z,47.73
2019-01-24T05:57:51.091Z,44.10
2019-01-24T06:00:29.248Z,48.30
2019-01-24T06:02:58.797Z,44.77
2019-01-24T06:05:28.316Z,42.47
2019-01-24T06:07:57.845Z,53.10
2019-01-24T06:10:27.385Z,48.57
2019-01-24T06:12:56.906Z,48.17
2019-01-24T06:15:26.646Z,49.03
2019-01-24T06:17:56.167Z,58.70
2019-01-24T06:20:25.682Z,47.20
2019-01-24T06:22:55.231Z,49.17
2019-01-24T06:25:24.746Z,47.10
2019-01-24T06:27:54.475Z,49.60
2019-01-24T06:30:24.710Z,60.07
2019-01-24T06:32:54.227Z,46.40
2019-01-24T06:35:23.768Z,41.90
2019-01-24T06:37:53.294Z,34.20
2019-01-24T06:40:22.829Z,39.63
2019-01-24T06:42:52.360Z,47.03
2019-01-24T06:45:23.486Z,39.73
2019-01-24T06:47:53.030Z,42.57
2019-01-24T06:50:22.699Z,38.80
2019-01-24T06:52:52.393Z,46.43
2019-01-24T06:55:28.116Z,49.90
2019-01-24T06:57:57.635Z,36.67
2019-01-24T07:00:27.252Z,37.17
2019-01-24T07:02:56.837Z,50.90
2019-01-24T07:05:26.395Z,40.70
2019-01-24T07:07:57.822Z,48.03
2019-01-24T07:10:27.368Z,42.90
2019-01-24T07:12:56.873Z,36.10
2019-01-24T07:15:26.458Z,20.60
2019-01-24T07:17:56.083Z,30.53
2019-01-24T07:20:25.685Z,45.70
2019-01-24T07:22:55.210Z,36.93
2019-01-24T07:25:27.740Z,32.13
2019-01-24T07:27:57.352Z,35.83
2019-01-24T07:30:26.868Z,43.47
2019-01-24T07:32:56.389Z,41.20
2019-01-24T07:35:25.950Z,32.27
2019-01-24T07:37:55.471Z,43.53
2019-01-24T07:40:25.005Z,32.43
2019-01-24T07:42:54.591Z,33.20
2019-01-24T07:45:28.406Z,32.10
2019-01-24T07:47:57.942Z,41.20
2019-01-24T07:50:27.602Z,41.43
2019-01-24T07:52:57.140Z,44.80
2019-01-24T07:55:26.663Z,42.13
2019-01-24T07:57:56.261Z,40.83
2019-01-24T08:00:30.257Z,43.23
2019-01-24T08:02:59.779Z,35.83
2019-01-24T08:05:31.226Z,37.47
2019-01-24T08:08:00.748Z,33.70
2019-01-24T08:10:30.298Z,35.73
2019-01-24T08:12:59.811Z,41.50
2019-01-24T08:15:29.410Z,41.87
2019-01-24T08:17:58.949Z,34.07
2019-01-24T08:20:29.214Z,30.97
2019-01-24T08:22:58.751Z,25.87
2019-01-24T08:25:28.278Z,37.33
2019-01-24T08:27:58.140Z,37.30
2019-01-24T08:30:31.091Z,40.17
2019-01-24T08:33:00.689Z,28.33
2019-01-24T08:35:30.577Z,35.27
2019-01-24T08:38:00.100Z,37.70
2019-01-24T08:40:29.714Z,36.00
2019-01-24T08:42:59.245Z,28.57
2019-01-24T08:45:28.841Z,30.27
2019-01-24T08:47:58.376Z,30.00
2019-01-24T08:50:28.439Z,31.53
2019-01-24T08:52:57.958Z,33.00
2019-01-24T08:55:34.290Z,36.87
2019-01-24T08:58:04.385Z,29.23
2019-01-24T09:00:33.998Z,30.87
2019-01-24T09:03:03.584Z,32.90
2019-01-24T09:05:33.103Z,35.23
2019-01-24T09:08:02.721Z,46.37
2019-01-24T09:10:37.877Z,36.87
2019-01-24T09:13:07.852Z,31.93
2019-01-24T09:15:37.706Z,34.33
2019-01-24T09:18:08.618Z,31.40
2019-01-24T09:20:38.166Z,37.87
2019-01-24T09:23:07.747Z,28.33
2019-01-24T09:25:37.430Z,29.13
2019-01-24T09:28:07.114Z,31.10
2019-01-24T09:30:36.821Z,34.27
2019-01-24T09:33:06.409Z,27.93
2019-01-24T09:35:36.016Z,30.47
2019-01-24T09:38:05.913Z,33.70
2019-01-24T09:40:35.428Z,28.83
2019-01-24T09:43:05.138Z,34.47
2019-01-24T09:45:34.804Z,33.63
2019-01-24T09:48:05.353Z,34.43
2019-01-24T09:50:34.889Z,33.07
2019-01-24T09:53:04.406Z,41.67
2019-01-24T09:55:33.932Z,29.90
2019-01-24T09:58:03.522Z,41.40
2019-01-24T10:00:35.067Z,41.83
2019-01-24T10:03:05.028Z,44.87
2019-01-24T10:05:34.631Z,35.67
2019-01-24T10:08:04.667Z,36.93
2019-01-24T10:10:34.277Z,37.60
2019-01-24T10:13:03.788Z,38.33
2019-01-24T10:15:33.314Z,34.67
2019-01-24T10:18:02.861Z,36.07
2019-01-24T10:20:32.406Z,45.73
2019-01-24T10:23:01.936Z,37.33
2019-01-24T10:25:34.771Z,38.60
2019-01-24T10:28:04.661Z,43.80
2019-01-24T10:30:34.384Z,36.90
2019-01-24T10:33:04.048Z,30.30
2019-01-24T10:35:33.583Z,44.93
2019-01-24T10:38:03.173Z,42.70
2019-01-24T10:40:34.067Z,36.40
2019-01-24T10:43:03.930Z,36.63
2019-01-24T10:45:33.547Z,43.50
2019-01-24T10:48:03.220Z,40.30
2019-01-24T10:50:32.749Z,35.97
2019-01-24T10:53:02.291Z,35.47
2019-01-24T10:55:31.885Z,33.70
2019-01-24T10:58:01.965Z,37.93
2019-01-24T11:00:38.331Z,43.63
2019-01-24T11:03:10.889Z,37.53
2019-01-24T11:05:40.413Z,38.30
2019-01-24T11:08:10.211Z,36.30
2019-01-24T11:10:39.819Z,31.97
2019-01-24T11:13:09.357Z,41.83
2019-01-24T11:15:38.885Z,38.70
2019-01-24T11:18:08.556Z,37.57
2019-01-24T11:20:38.085Z,46.70
2019-01-24T11:23:07.803Z,37.37
2019-01-24T11:25:37.545Z,36.93
2019-01-24T11:28:07.170Z,47.10
2019-01-24T11:30:37.031Z,36.57
2019-01-24T11:33:08.388Z,46.40
2019-01-24T11:35:38.900Z,42.57
2019-01-24T11:38:08.665Z,49.03
2019-01-24T11:40:38.378Z,55.87
2019-01-24T11:43:07.992Z,54.80
2019-01-24T11:45:40.406Z,41.83
2019-01-24T11:48:10.120Z,74.10
2019-01-24T11:50:39.645Z,45.73
2019-01-24T11:53:09.195Z,45.33
2019-01-24T11:55:38.728Z,47.40
2019-01-24T11:58:08.628Z,47.80
2019-01-24T12:00:41.316Z,49.83
2019-01-24T12:03:10.838Z,59.60
2019-01-24T12:05:40.376Z,52.57
2019-01-24T12:08:10.245Z,55.93
2019-01-24T12:10:39.782Z,74.97
2019-01-24T12:13:09.344Z,61.90
2019-01-24T12:15:38.890Z,53.47
2019-01-24T12:18:08.536Z,60.57
2019-01-24T12:20:38.082Z,52.73
2019-01-24T12:23:07.695Z,67.00
2019-01-24T12:25:37.239Z,46.60
2019-01-24T12:28:07.011Z,64.90
2019-01-24T12:30:37.762Z,64.93
2019-01-24T12:33:07.535Z,65.87
2019-01-24T12:35:37.266Z,56.47
2019-01-24T12:38:07.034Z,59.83
2019-01-24T12:40:36.654Z,63.47
2019-01-24T12:43:06.528Z,75.47
2019-01-24T12:45:39.095Z,65.37
2019-01-24T12:48:08.788Z,59.37
2019-01-24T12:50:38.440Z,76.00
2019-01-24T12:53:08.267Z,63.57
2019-01-24T12:55:37.875Z,62.37
2019-01-24T12:58:07.566Z,56.63
2019-01-24T13:00:38.546Z,61.20
2019-01-24T13:03:08.194Z,68.13
2019-01-24T13:05:37.706Z,62.17
2019-01-24T13:08:07.311Z,70.70
2019-01-24T13:10:37.042Z,66.67
2019-01-24T13:13:06.977Z,67.00
2019-01-24T13:15:36.949Z,50.13
2019-01-24T13:18:07.137Z,49.13
2019-01-24T13:20:36.780Z,69.87
2019-01-24T13:23:06.636Z,50.70
2019-01-24T13:25:36.268Z,52.33
2019-01-24T13:28:06.239Z,24.17
2019-01-24T13:30:36.211Z,54.27
2019-01-24T13:33:06.275Z,40.20
2019-01-24T13:35:35.837Z,46.83
2019-01-24T13:38:06.166Z,50.77
2019-01-24T13:40:35.711Z,55.37
2019-01-24T13:43:05.980Z,62.67
2019-01-24T13:45:37.010Z,42.53
2019-01-24T13:48:07.079Z,47.63
2019-01-24T13:50:36.599Z,52.47
2019-01-24T13:53:06.503Z,49.97
2019-01-24T13:55:36.092Z,55.70
2019-01-24T13:58:06.093Z,51.73
2019-01-24T14:00:37.006Z,51.53
2019-01-24T14:03:14.626Z,37.30
2019-01-24T14:05:44.426Z,43.17
2019-01-24T14:08:13.966Z,47.13
2019-01-24T14:10:43.561Z,50.73
2019-01-24T14:13:13.128Z,54.43
2019-01-24T14:15:42.632Z,50.70
2019-01-24T14:18:12.179Z,50.33
2019-01-24T14:20:41.738Z,45.03
2019-01-24T14:23:11.279Z,62.93
2019-01-24T14:25:40.822Z,59.53
2019-01-24T14:28:10.543Z,51.60
2019-01-24T14:30:40.176Z,53.67
2019-01-24T14:33:09.798Z,53.23
2019-01-24T14:35:39.407Z,47.53
2019-01-24T14:38:10.013Z,52.37
2019-01-24T14:40:39.574Z,54.43
2019-01-24T14:43:09.184Z,64.73
2019-01-24T14:45:38.721Z,39.70
2019-01-24T14:48:08.598Z,60.13
2019-01-24T14:50:38.517Z,40.57
2019-01-24T14:53:08.261Z,53.73
2019-01-24T14:55:37.781Z,47.17
2019-01-24T14:58:07.578Z,63.70
2019-01-24T15:00:45.274Z,55.87
2019-01-24T15:03:14.844Z,63.83
2019-01-24T15:05:44.510Z,54.20
2019-01-24T15:08:14.898Z,52.10
2019-01-24T15:10:44.470Z,53.53
2019-01-24T15:13:14.079Z,64.80
2019-01-24T15:15:43.687Z,52.37
2019-01-24T15:18:13.364Z,58.97
2019-01-24T15:20:42.973Z,58.87
2019-01-24T15:23:12.515Z,54.20
2019-01-24T15:25:42.034Z,53.57
2019-01-24T15:28:11.720Z,59.60
2019-01-24T15:30:41.464Z,52.23
2019-01-24T15:33:11.038Z,50.57
2019-01-24T15:35:40.620Z,60.63
2019-01-24T15:38:10.315Z,51.80
2019-01-24T15:40:40.073Z,47.40
2019-01-24T15:43:09.700Z,56.30
2019-01-24T15:45:39.530Z,67.97
2019-01-24T15:48:09.481Z,50.67
2019-01-24T15:50:39.378Z,55.43
2019-01-24T15:53:11.877Z,46.13
2019-01-24T15:55:41.577Z,57.87
2019-01-24T15:58:11.285Z,54.50
2019-01-24T16:00:41.177Z,62.10
2019-01-24T16:03:10.837Z,62.87
2019-01-24T16:05:40.358Z,55.30
2019-01-24T16:08:10.051Z,56.83
2019-01-24T16:10:39.589Z,53.83
2019-01-24T16:13:09.131Z,60.43
2019-01-24T16:15:38.666Z,47.10
2019-01-24T16:18:09.597Z,58.60
2019-01-24T16:20:39.481Z,62.83
2019-01-24T16:23:09.148Z,61.40
2019-01-24T16:25:39.020Z,61.33
2019-01-24T16:28:08.548Z,56.27
2019-01-24T16:30:38.546Z,58.17
2019-01-24T16:33:09.645Z,56.87
2019-01-24T16:35:39.565Z,53.77
2019-01-24T16:38:09.837Z,50.37
2019-01-24T16:40:39.478Z,59.13
2019-01-24T16:43:08.998Z,56.13
2019-01-24T16:45:38.536Z,57.30
2019-01-24T16:48:08.476Z,52.47
2019-01-24T16:50:38.011Z,51.93
2019-01-24T16:53:07.611Z,49.47
2019-01-24T16:55:37.168Z,55.47
2019-01-24T16:58:07.352Z,61.80
2019-01-24T17:00:43.946Z,42.50
2019-01-24T17:03:13.535Z,47.10
2019-01-24T17:05:43.268Z,54.13
2019-01-24T17:08:16.763Z,61.40
2019-01-24T17:10:44.100Z,66.77
2019-01-24T17:13:13.645Z,76.93
2019-01-24T17:15:43.174Z,61.23
2019-01-24T17:18:12.714Z,73.17
2019-01-24T17:20:42.259Z,81.53
2019-01-24T17:23:11.787Z,68.57
2019-01-24T17:25:41.327Z,77.50
2019-01-24T17:28:10.839Z,67.87
2019-01-24T17:30:40.382Z,68.23
2019-01-24T17:33:09.914Z,67.43
2019-01-24T17:35:40.792Z,67.83
2019-01-24T17:38:10.437Z,70.03
2019-01-24T17:40:40.022Z,67.80
2019-01-24T17:43:09.603Z,78.83
2019-01-24T17:45:39.180Z,75.63
2019-01-24T17:48:08.982Z,68.27
2019-01-24T17:50:38.504Z,74.37
2019-01-24T17:53:08.043Z,83.00
2019-01-24T17:55:46.147Z,72.80
2019-01-24T17:58:15.857Z,85.20
2019-01-24T18:00:47.023Z,72.70
2019-01-24T18:03:16.832Z,57.80
2019-01-24T18:05:46.688Z,65.03
2019-01-24T18:08:16.438Z,87.63
2019-01-24T18:10:45.920Z,69.60
2019-01-24T18:13:15.470Z,70.23
2019-01-24T18:15:45.742Z,60.10
2019-01-24T18:18:15.915Z,63.17
2019-01-24T18:20:45.441Z,72.27
2019-01-24T18:23:15.062Z,69.43
2019-01-24T18:25:44.591Z,56.07
2019-01-24T18:28:14.366Z,60.13
2019-01-24T18:30:44.133Z,64.40
2019-01-24T18:33:13.864Z,77.30
2019-01-24T18:35:43.550Z,64.40
2019-01-24T18:38:13.155Z,57.47
2019-01-24T18:40:42.847Z,67.00
2019-01-24T18:43:16.600Z,71.37
2019-01-24T18:45:50.307Z,64.83
2019-01-24T18:48:19.997Z,71.03
2019-01-24T18:50:49.611Z,67.87
2019-01-24T18:53:19.219Z,65.13
2019-01-24T18:55:48.732Z,60.60
2019-01-24T18:58:18.258Z,59.40
2019-01-24T19:00:47.975Z,60.17
2019-01-24T19:03:17.494Z,60.63
2019-01-24T19:05:47.037Z,53.00
2019-01-24T19:08:16.702Z,82.77
2019-01-24T19:10:46.232Z,58.17
2019-01-24T19:13:15.814Z,67.90
2019-01-24T19:15:45.355Z,62.10
2019-01-24T19:18:15.212Z,53.37
2019-01-24T19:20:44.759Z,60.73
2019-01-24T19:23:14.277Z,53.57
2019-01-24T19:25:44.673Z,73.53
2019-01-24T19:28:14.190Z,58.13
2019-01-24T19:30:43.903Z,55.33
2019-01-24T19:33:13.420Z,60.20
2019-01-24T19:35:42.959Z,75.80
2019-01-24T19:38:12.487Z,65.57
2019-01-24T19:40:42.200Z,57.30
2019-01-24T19:43:11.732Z,69.83
2019-01-24T19:45:41.262Z,84.67
2019-01-24T19:48:11.056Z,61.97
2019-01-24T19:50:40.600Z,70.03
2019-01-24T19:53:10.191Z,75.83
2019-01-24T19:55:39.898Z,58.47
2019-01-24T19:58:09.691Z,64.73
2019-01-24T20:00:39.297Z,59.97
2019-01-24T20:03:09.374Z,67.10
2019-01-24T20:05:38.890Z,65.43
2019-01-24T20:08:08.650Z,59.33
2019-01-24T20:10:38.198Z,64.20
2019-01-24T20:13:07.731Z,58.37
2019-01-24T20:15:37.332Z,59.77
2019-01-24T20:18:07.760Z,52.20
2019-01-24T20:20:37.658Z,57.10
2019-01-24T20:23:07.699Z,50.57
2019-01-24T20:25:37.463Z,51.80
2019-01-24T20:28:07.004Z,49.53
2019-01-24T20:30:36.661Z,57.60
2019-01-24T20:33:06.636Z,56.17
2019-01-24T20:35:43.514Z,48.87
2019-01-24T20:38:13.395Z,58.30
2019-01-24T20:40:42.917Z,51.80
2019-01-24T20:43:14.185Z,45.17
2019-01-24T20:45:43.771Z,45.70
2019-01-24T20:48:13.548Z,51.80
2019-01-24T20:50:43.277Z,54.53
2019-01-24T20:53:12.971Z,64.07
2019-01-24T20:55:42.485Z,51.70
2019-01-24T20:58:12.029Z,48.13
2019-01-24T21:00:41.546Z,47.70
2019-01-24T21:03:11.237Z,43.27
2019-01-24T21:05:40.753Z,49.00
2019-01-24T21:08:10.302Z,51.13
2019-01-24T21:10:39.824Z,49.53
2019-01-24T21:13:09.419Z,49.90
2019-01-24T21:15:39.020Z,45.80
2019-01-24T21:18:08.613Z,48.90
2019-01-24T21:20:38.311Z,50.07
2019-01-24T21:23:08.038Z,44.00
2019-01-24T21:25:37.548Z,49.10
2019-01-24T21:28:07.186Z,47.43
2019-01-24T21:30:38.268Z,48.87
2019-01-24T21:33:08.644Z,47.00
2019-01-24T21:35:38.166Z,44.60
2019-01-24T21:38:09.349Z,49.10
2019-01-24T21:40:38.861Z,42.53
2019-01-24T21:43:08.415Z,41.30
2019-01-24T21:45:39.545Z,42.90
2019-01-24T21:48:09.438Z,46.70
2019-01-24T21:50:39.028Z,44.83
2019-01-24T21:53:08.637Z,54.10
2019-01-24T21:55:38.171Z,43.07
2019-01-24T21:58:08.245Z,47.13
2019-01-24T22:00:37.916Z,48.37
2019-01-24T22:03:07.608Z,49.37
2019-01-24T22:05:37.242Z,47.30
2019-01-24T22:08:07.237Z,55.47
2019-01-24T22:10:36.844Z,57.60
2019-01-24T22:13:06.772Z,45.40
2019-01-24T22:15:36.692Z,50.93
2019-01-24T22:18:06.661Z,45.73
2019-01-24T22:20:36.440Z,44.30
2019-01-24T22:23:06.612Z,46.77
2019-01-24T22:25:36.479Z,51.63
2019-01-24T22:28:06.810Z,46.30
2019-01-24T22:30:42.049Z,47.30
2019-01-24T22:33:11.721Z,47.57
2019-01-24T22:35:41.272Z,47.50
2019-01-24T22:38:10.821Z,52.90
2019-01-24T22:40:40.362Z,44.43
2019-01-24T22:43:10.026Z,41.80
2019-01-24T22:45:39.945Z,56.77
2019-01-24T22:48:11.010Z,55.47
2019-01-24T22:50:40.553Z,53.17
2019-01-24T22:53:10.153Z,50.27
2019-01-24T22:55:39.696Z,48.87
2019-01-24T22:58:09.389Z,50.40
2019-01-24T23:00:59.126Z,46.63
2019-01-24T23:03:44.245Z,50.00
2019-01-24T23:06:13.789Z,68.70
2019-01-24T23:08:43.314Z,47.73
2019-01-24T23:11:12.921Z,46.77
2019-01-24T23:13:42.450Z,55.87
2019-01-24T23:16:12.132Z,51.50
2019-01-24T23:18:41.659Z,53.07
2019-01-24T23:21:11.263Z,59.43
2019-01-24T23:23:40.786Z,57.67
2019-01-24T23:26:10.457Z,57.23
2019-01-24T23:28:40.378Z,52.93
2019-01-24T23:31:09.867Z,53.13
2019-01-24T23:33:39.406Z,60.00
2019-01-24T23:36:09.003Z,57.43
2019-01-24T23:38:38.538Z,56.33
2019-01-24T23:41:08.092Z,59.07
2019-01-24T23:43:37.705Z,63.17
2019-01-24T23:46:07.433Z,64.67
2019-01-24T23:48:37.040Z,65.90
2019-01-24T23:51:06.584Z,67.27
2019-01-24T23:53:36.181Z,63.00
2019-01-24T23:56:06.053Z,61.57
2019-01-24T23:58:35.576Z,62.33
